Weather at La Rochelle-Île de Ré Airport

Public forecast

Using degrees Celsius for public forecast. Weather courtesy of forecast.io.

Current aviation weather report (METAR) for La Rochelle-Île de Ré Airport

Retrieved 2021/09/24 17:30 UTC (9 minutes ago):

LFBH 241730Z AUTO 34003KT CAVOK 21/16 Q1016 NOSIG

Aviation forecast (TAF) for La Rochelle-Île de Ré Airport

Retrieved 2021/09/24 12:42 UTC (5 hours ago):

TAF LFBH 241100Z 2412/2512 19005KT CAVOK BECMG 2413/2415 30005KT BECMG 2500/2502 09010KT TEMPO 2505/2511 SCT070TCU PROB30 TEMPO 2510/2512 3000 TSRA BKN060CB